Saragt, Turkmenistan

9:19 AM TMT on January 28, 2015 (GMT +0500)
SARAKHS | Change Station
CLOSE
Current Station
Airport
Location: SARAKHS,
Elevation: 945 ft
Nearby Weather Stations

Elev 945 ft 36.50 °N, 61.06 °E | Updated 19 minutes ago

Overcast
Overcast
30 °F
Feels Like 22 °F
N
9
Wind Variable Wind from NW

Today
High -- | Low -- °F
--% Chance of Precip.
Yesterday
High -- | Low -- °F
Precip. -- in
8:00 AM 6:16 PM
First Quarter, 60% visible
Pressure 30.30 in
Visibility 1.9 miles
Clouds Mostly Cloudy 2000 ft
Overcast 8000 ft
Windchill 22 °F
Dew Point 27 °F
Humidity 86%
Rainfall 0.00 in
Snow Depth Not available.
UV 0 out of 12
Pollen Not available.
Air Quality Not available.
Flu Activity Not available.
METAR OIMC 280400Z 31008KT 3000 BR BKN020 OVC080 M01/M03 Q1026

More Conditions Fewer Conditions

Pressure 30.30 in
Visibility 1.9 miles
Clouds Mostly Cloudy 2000 ft
Overcast 8000 ft
Windchill 22 °F
Dew Point 27 °F
Humidity 86%
Rainfall 0.00 in
Snow Depth Not available.
UV 0 out of 12
Pollen Not available.
Air Quality Not available.
Flu Activity Not available.
METAR OIMC 280400Z 31008KT 3000 BR BKN020 OVC080 M01/M03 Q1026

More Conditions Fewer Conditions

10-Day Weather Forecast

Almanac

Astronomy

Jan. 28, 2015 Rise Set
Actual Time
Civil Twilight
Nautical Twilight
Astronomical Twilight
Moon
Length of Visible Light
Length of Day
Tomorrow will be .
, % of the Moon is Illuminated

Today's Extremes

Country Highs Country Lows

Community

WunderPhotos

Upload Photos

1,791,086 photos uploaded!

WunderBlogs® & News

Nearby

Air Quality

  Air Quality AQ Index Pollutant
Not available.

Snow Depth

Station Depth Elevation

Earthquake Activity

City Distance Mag. Time & Date
Minimum magnitude displayed is 2.5.

Coastal Water Temperatures

Place Temperature

Nearby Weather Stations